Temp: 9.7°C   Baro: 1017.8mb
  Wind: 9.0mph   Dir: NW (313°)
  Rain: 0.0mm (0.0mm/hr)
  Sun: 796W/m2  Humidity: 60%

Historic data

Bath Spa Weather Station Historical Data
Daily Summary for February 28, 2024 Units:  Metric    English   Both
Daily Weekly Monthly Yearly Custom
  High: Low: Average:
Temperature: 10.8 °C 5.7 °C 8.5 °C
Dew Point: 9.7 °C 4.8 °C 7.4 °C
Humidity: 95% 90% 93%
Wind Speed: 19.6km/h 0km/h 4.2km/h
Wind Gust: 30.6km/h - -
Wind- - SW
Pressure: 1020.9 hPa 1009.7 hPa -
Precipitation: 0.51 mm    
Historical Graphs
 
 
Tabular Data for February 28, 2024
Time Temperature Dew Point Pressure Wind Wind Speed Wind Gust Humidity Rainfall Rate (Hourly) solar
00:09 7.4 °C 6.5 °C 1020.9 hPa Calm     94% 0 mm 0 W/m2
00:14 7.3 °C 6.4 °C 1020.5 hPa Calm     94% 0 mm 0 W/m2
00:19 7.3 °C 6.4 °C 1020.5 hPa Calm     94% 0 mm 0 W/m2
00:24 7.3 °C 6.4 °C 1020.5 hPa Calm     94% 0 mm 0 W/m2
00:29 7.3 °C 6.3 °C 1020.5 hPa Calm     94% 0 mm 0 W/m2
00:34 7.3 °C 6.4 °C 1020.5 hPa Calm     94% 0 mm 0 W/m2
00:39 7.2 °C 6.3 °C 1020.9 hPa Calm   1.6 km/h 94% 0 mm 0 W/m2
00:44 7.3 °C 6.3 °C 1020.9 hPa Calm     94% 0 mm 0 W/m2
00:49 7.3 °C 6.3 °C 1020.9 hPa Calm     94% 0 mm 0 W/m2
00:54 7.3 °C 6.3 °C 1020.9 hPa Calm     94% 0 mm 0 W/m2
00:59 7.3 °C 6.4 °C 1020.9 hPa Calm     94% 0 mm 0 W/m2
01:04 7.3 °C 6.3 °C 1020.9 hPa West 1 km/h 3.2 km/h 94% 0 mm 0 W/m2
01:09 7.2 °C 6.3 °C 1020.9 hPa West 1.4 km/h 3.2 km/h 94% 0 mm 0 W/m2
01:14 7.2 °C 6.3 °C 1020.9 hPa Calm   3.2 km/h 94% 0 mm 0 W/m2
01:19 7.3 °C 6.4 °C 1020.9 hPa Calm     94% 0 mm 0 W/m2
01:24 7.3 °C 6.3 °C 1020.9 hPa Calm     94% 0 mm 0 W/m2
01:29 7.3 °C 6.4 °C 1020.5 hPa Calm     94% 0 mm 0 W/m2
01:34 7.3 °C 6.4 °C 1020.5 hPa Calm     94% 0 mm 0 W/m2
01:39 7.3 °C 6.4 °C 1020.9 hPa Calm     94% 0 mm 0 W/m2
01:44 7.3 °C 6.4 °C 1020.9 hPa Calm     94% 0 mm 0 W/m2
01:49 7.3 °C 6.4 °C 1020.9 hPa Calm     94.2% 0 mm 0 W/m2
01:54 7.3 °C 6.5 °C 1020.9 hPa Calm     94.8% 0 mm 0 W/m2
01:59 7.2 °C 6.5 °C 1020.9 hPa Calm     95% 0 mm 0 W/m2
02:04 7.2 °C 6.5 °C 1020.9 hPa West 2.6 km/h 4.8 km/h 95% 0 mm 0 W/m2
02:09 7.2 °C 6.5 °C 1020.9 hPa West 3.1 km/h 8 km/h 95% 0 mm 0 W/m2
02:14 7.2 °C 6.5 °C 1020.9 hPa WSW 5.1 km/h 8 km/h 95% 0 mm 0 W/m2
02:19 7.2 °C 6.5 °C 1020.9 hPa WSW 3.7 km/h 4.8 km/h 95% 0 mm 0 W/m2
02:24 7.2 °C 6.5 °C 1020.5 hPa WSW 4 km/h 6.4 km/h 95% 0 mm 0 W/m2
02:29 7.2 °C 6.5 °C 1020.9 hPa WSW 2.1 km/h 4.8 km/h 95% 0 mm 0 W/m2
02:34 7.2 °C 6.5 °C 1020.9 hPa WSW 2.1 km/h 6.4 km/h 95% 0 mm 0 W/m2
02:39 7.2 °C 6.5 °C 1020.9 hPa WSW 3.5 km/h 8 km/h 95% 0 mm 0 W/m2
02:44 7.2 °C 6.5 °C 1020.9 hPa WSW 2.9 km/h 8 km/h 95% 0 mm 0 W/m2
02:49 7.2 °C 6.5 °C 1020.9 hPa WSW 0.6 km/h 3.2 km/h 95% 0 mm 0 W/m2
02:54 7.2 °C 6.5 °C 1020.9 hPa WSW 1 km/h 4.8 km/h 95% 0 mm 0 W/m2
02:59 7.2 °C 6.6 °C 1020.9 hPa Calm   1.6 km/h 95% 0 mm 0 W/m2
03:04 7.3 °C 6.6 °C 1020.9 hPa WSW 0.3 km/h 1.6 km/h 95% 0 mm 0 W/m2
03:09 7.3 °C 6.6 °C 1020.9 hPa WSW 1.6 km/h 4.8 km/h 95% 0 mm 0 W/m2
03:14 7.2 °C 6.5 °C 1020.9 hPa WSW 3.2 km/h 4.8 km/h 95% 0 mm 0 W/m2
03:19 7.2 °C 6.5 °C 1020.5 hPa WSW 2.3 km/h 6.4 km/h 95% 0 mm 0 W/m2
03:24 7.3 °C 6.6 °C 1020.5 hPa Calm   3.2 km/h 95% 0 mm 0 W/m2
03:29 7.2 °C 6.5 °C 1020.5 hPa WSW 0.3 km/h 1.6 km/h 95% 0 mm 0 W/m2
03:34 7.2 °C 6.5 °C 1020.5 hPa Calm   1.6 km/h 95% 0 mm 0 W/m2
03:39 7.2 °C 6.5 °C 1020.5 hPa Calm   1.6 km/h 95% 0 mm 0 W/m2
03:44 7.1 °C 6.4 °C 1020.5 hPa Calm   1.6 km/h 95% 0 mm 0 W/m2
03:49 7.1 °C 6.4 °C 1020.5 hPa Calm     95% 0 mm 0 W/m2
03:54 7 °C 6.3 °C 1020.5 hPa Calm     95% 0 mm 0 W/m2
03:59 6.9 °C 6.2 °C 1020.5 hPa Calm     95% 0 mm 0 W/m2
04:04 6.9 °C 6.2 °C 1020.5 hPa Calm     95% 0 mm 0 W/m2
04:09 6.8 °C 6.1 °C 1020.5 hPa Calm     95% 0 mm 0 W/m2
04:14 6.8 °C 6.1 °C 1020.5 hPa Calm     95% 0 mm 0 W/m2
04:19 6.8 °C 6.1 °C 1020.5 hPa WSW 0.3 km/h 1.6 km/h 95% 0 mm 0 W/m2
04:24 6.8 °C 6.1 °C 1020.5 hPa Calm   3.2 km/h 95% 0 mm 0 W/m2
04:29 6.7 °C 6 °C 1020.5 hPa Calm   1.6 km/h 95% 0 mm 0 W/m2
04:34 6.7 °C 6 °C 1020.5 hPa WSW 0.3 km/h 1.6 km/h 95% 0 mm 0 W/m2
04:39 6.7 °C 6 °C 1020.2 hPa WSW 0.6 km/h 3.2 km/h 95% 0 mm 0 W/m2
04:44 6.7 °C 6 °C 1020.2 hPa WSW 1.9 km/h 4.8 km/h 95% 0 mm 0 W/m2
04:49 6.6 °C 5.9 °C 1020.2 hPa WSW 1.6 km/h 6.4 km/h 95% 0 mm 0 W/m2
04:54 6.6 °C 5.9 °C 1020.2 hPa WSW 3.9 km/h 6.4 km/h 95% 0 mm 0 W/m2
04:59 6.6 °C 5.9 °C 1020.2 hPa WSW 3.2 km/h 6.4 km/h 95% 0 mm 0 W/m2
05:04 6.6 °C 5.8 °C 1020.2 hPa WSW 1.1 km/h 3.2 km/h 95% 0 mm 0 W/m2
05:09 6.6 °C 5.8 °C 1019.9 hPa WSW 1.4 km/h 4.8 km/h 95% 0 mm 0 W/m2
05:14 6.5 °C 5.8 °C 1019.9 hPa WSW 0.8 km/h 4.8 km/h 95% 0 mm 0 W/m2
05:19 6.5 °C 5.8 °C 1019.9 hPa WSW 0.3 km/h 3.2 km/h 95% 0 mm 0 W/m2
05:24 6.4 °C 5.7 °C 1019.9 hPa Calm   1.6 km/h 95% 0 mm 0 W/m2
05:29 6.4 °C 5.7 °C 1019.9 hPa WSW 1 km/h 3.2 km/h 95% 0 mm 0 W/m2
05:34 6.4 °C 5.7 °C 1019.9 hPa WSW 2.3 km/h 4.8 km/h 95% 0 mm 0 W/m2
05:39 6.3 °C 5.7 °C 1019.9 hPa WSW 2.6 km/h 8 km/h 95% 0 mm 0 W/m2
05:44 6.3 °C 5.6 °C 1019.9 hPa West 1.3 km/h 4.8 km/h 95% 0 mm 0 W/m2
05:48 6.3 °C 5.6 °C 1019.9 hPa West 3.2 km/h 8 km/h 95% 0 mm 0 W/m2
05:54 6.2 °C 5.5 °C 1020.2 hPa West 2.4 km/h 6.4 km/h 95% 0 mm 0 W/m2
05:59 6.2 °C 5.5 °C 1019.9 hPa West 0.3 km/h 3.2 km/h 95% 0 mm 0 W/m2
06:04 6.2 °C 5.5 °C 1019.9 hPa West 0.6 km/h 4.8 km/h 95% 0 mm 0 W/m2
06:09 6.2 °C 5.4 °C 1019.9 hPa West 1.1 km/h 3.2 km/h 95% 0 mm 0 W/m2
06:14 6.1 °C 5.4 °C 1019.9 hPa West 1.9 km/h 4.8 km/h 95% 0 mm 0 W/m2
06:19 6.1 °C 5.4 °C 1019.9 hPa West 1.3 km/h 3.2 km/h 95% 0 mm 0 W/m2
06:24 6.1 °C 5.4 °C 1019.5 hPa West 1.3 km/h 3.2 km/h 95% 0 mm 0 W/m2
06:29 6.1 °C 5.3 °C 1019.5 hPa West 1.8 km/h 4.8 km/h 95% 0 mm 0 W/m2
06:34 6.1 °C 5.3 °C 1019.5 hPa West 0.3 km/h 3.2 km/h 95% 0 mm 0 W/m2
06:39 6 °C 5.3 °C 1019.5 hPa West 0.6 km/h 3.2 km/h 95% 0 mm 0 W/m2
06:44 6 °C 5.3 °C 1019.5 hPa West 1.9 km/h 4.8 km/h 95% 0 mm 0 W/m2
06:49 6 °C 5.3 °C 1019.5 hPa West 1.3 km/h 4.8 km/h 95% 0 mm 0 W/m2
06:54 6 °C 5.3 °C 1019.5 hPa Calm   1.6 km/h 95% 0 mm 0 W/m2
06:59 6 °C 5.3 °C 1019.5 hPa Calm   1.6 km/h 95% 0 mm 0 W/m2
07:04 6 °C 5.3 °C 1019.5 hPa Calm   1.6 km/h 95% 0 mm 5 W/m2
07:09 6 °C 5.3 °C 1019.5 hPa West 0.3 km/h 3.2 km/h 95% 0 mm 12 W/m2
07:14 5.9 °C 5.2 °C 1019.5 hPa West 0.6 km/h 3.2 km/h 95% 0 mm 14 W/m2
07:18 5.9 °C 5.2 °C 1019.5 hPa West 0.8 km/h 3.2 km/h 95% 0 mm 14 W/m2
07:24 5.9 °C 5.2 °C 1019.5 hPa Calm   3.2 km/h 95% 0 mm 18 W/m2
07:29 5.8 °C 5.2 °C 1019.5 hPa West 1.3 km/h 3.2 km/h 95% 0 mm 25 W/m2
07:34 5.8 °C 4.9 °C 1019.5 hPa West 2.6 km/h 4.8 km/h 94.2% 0 mm 37 W/m2
07:39 5.8 °C 4.9 °C 1019.5 hPa West 2.1 km/h 4.8 km/h 94% 0 mm 47 W/m2
07:44 5.7 °C 4.8 °C 1019.5 hPa West 1 km/h 3.2 km/h 94% 0 mm 47 W/m2
07:49 5.8 °C 4.8 °C 1019.9 hPa West 3.1 km/h 6.4 km/h 94% 0 mm 37 W/m2
07:54 5.7 °C 4.8 °C 1019.9 hPa West 2.9 km/h 6.4 km/h 94% 0 mm 39 W/m2
07:59 5.7 °C 4.8 °C 1019.9 hPa West 2.3 km/h 4.8 km/h 94% 0 mm 39 W/m2
08:04 5.8 °C 4.9 °C 1019.9 hPa West 2.3 km/h 4.8 km/h 94% 0 mm 35 W/m2
08:09 5.7 °C 4.8 °C 1019.9 hPa West 0.3 km/h 3.2 km/h 94% 0 mm 35 W/m2
08:14 5.7 °C 4.8 °C 1019.9 hPa West 2.1 km/h 4.8 km/h 94% 0 mm 39 W/m2
08:19 5.7 °C 4.8 °C 1020.2 hPa West 1.4 km/h 4.8 km/h 94% 0 mm 47 W/m2
08:24 5.8 °C 4.9 °C 1020.2 hPa West 0.8 km/h 3.2 km/h 94% 0 mm 53 W/m2
08:29 5.8 °C 4.9 °C 1020.2 hPa Calm   1.6 km/h 94% 0 mm 53 W/m2
08:34 5.9 °C 5 °C 1020.2 hPa West 0.3 km/h 4.8 km/h 94% 0 mm 49 W/m2
08:39 6 °C 5.1 °C 1019.9 hPa West 0.3 km/h 1.6 km/h 94% 0 mm 44 W/m2
08:44 6 °C 5.1 °C 1020.2 hPa West 0.3 km/h 1.6 km/h 94% 0 mm 42 W/m2
08:49 6.1 °C 5.2 °C 1019.9 hPa Calm     94% 0 mm 44 W/m2
08:54 6.2 °C 5.3 °C 1019.9 hPa Calm     94% 0 mm 49 W/m2
08:59 6.2 °C 5.3 °C 1019.9 hPa West 0.6 km/h 3.2 km/h 94% 0 mm 51 W/m2
09:04 6.2 °C 5.3 °C 1019.9 hPa Calm   1.6 km/h 94% 0 mm 54 W/m2
09:09 6.2 °C 5.3 °C 1019.9 hPa West 0.3 km/h 3.2 km/h 94% 0 mm 54 W/m2
09:14 6.3 °C 5.4 °C 1019.9 hPa West 1.3 km/h 3.2 km/h 94% 0 mm 67 W/m2
09:19 6.3 °C 5.4 °C 1019.9 hPa West 2.4 km/h 4.8 km/h 94% 0 mm 86 W/m2
09:24 6.4 °C 5.5 °C 1019.9 hPa West 1.9 km/h 4.8 km/h 94% 0 mm 93 W/m2
09:29 6.4 °C 5.5 °C 1019.9 hPa SW 0.8 km/h 8 km/h 94% 0 mm 102 W/m2
09:34 6.6 °C 5.7 °C 1019.9 hPa SW 0.6 km/h 6.4 km/h 94% 0 mm 104 W/m2
09:39 6.7 °C 5.8 °C 1019.9 hPa SW 2.1 km/h 6.4 km/h 94% 0 mm 98 W/m2
09:44 6.8 °C 5.9 °C 1019.5 hPa SW 2.4 km/h 4.8 km/h 94% 0 mm 98 W/m2
09:49 6.8 °C 5.9 °C 1019.9 hPa SW 2.6 km/h 8 km/h 94% 0 mm 109 W/m2
09:54 6.9 °C 6 °C 1019.5 hPa SW 5.1 km/h 9.7 km/h 94% 0 mm 109 W/m2
09:59 6.9 °C 6.1 °C 1019.5 hPa SW 3.9 km/h 9.7 km/h 94% 0 mm 102 W/m2
10:04 7.1 °C 6.2 °C 1019.5 hPa SW 5.1 km/h 11.3 km/h 94% 0 mm 107 W/m2
10:09 7.1 °C 6.1 °C 1019.5 hPa SW 3.4 km/h 11.3 km/h 93.4% 0 mm 105 W/m2
10:14 7.1 °C 6.1 °C 1019.5 hPa SW 4 km/h 11.3 km/h 93.4% 0 mm 104 W/m2
10:19 7.2 °C 6.1 °C 1019.5 hPa SW 4.2 km/h 9.7 km/h 93% 0 mm 102 W/m2
10:24 7.2 °C 6.1 °C 1019.5 hPa SSW 4 km/h 11.3 km/h 93% 0 mm 102 W/m2
10:29 7.3 °C 6.2 °C 1019.5 hPa SW 3.4 km/h 11.3 km/h 93% 0 mm 114 W/m2
10:34 7.3 °C 6.2 °C 1019.2 hPa SW 1.4 km/h 6.4 km/h 92.6% 0 mm 120 W/m2
10:39 7.4 °C 6.2 °C 1019.2 hPa SSW 4.2 km/h 9.7 km/h 92% 0 mm 120 W/m2
10:44 7.5 °C 6.3 °C 1019.2 hPa SSW 3.9 km/h 9.7 km/h 92% 0 mm 121 W/m2
10:49 7.5 °C 6.3 °C 1019.2 hPa SW 4.5 km/h 11.3 km/h 92% 0 mm 120 W/m2
10:54 7.6 °C 6.3 °C 1019.2 hPa SW 2.1 km/h 6.4 km/h 92% 0 mm 111 W/m2
10:59 7.7 °C 6.3 °C 1018.8 hPa SW 3.4 km/h 6.4 km/h 91.2% 0 mm 105 W/m2
11:04 7.6 °C 6.2 °C 1018.8 hPa SW 2.6 km/h 6.4 km/h 91% 0 mm 95 W/m2
11:09 7.6 °C 6.2 °C 1018.8 hPa SW 1.4 km/h 4.8 km/h 91% 0.25 mm 107 W/m2
11:14 7.7 °C 6.3 °C 1018.8 hPa SW 1.4 km/h 6.4 km/h 91% 0.25 mm 113 W/m2
11:18 7.7 °C 6.3 °C 1018.8 hPa SSW 2.7 km/h 8 km/h 91% 0.25 mm 130 W/m2
11:24 7.7 °C 6.3 °C 1018.5 hPa SSW 3.4 km/h 6.4 km/h 91% 0.25 mm 135 W/m2
11:29 7.7 °C 6.3 °C 1018.5 hPa SSW 2.7 km/h 4.8 km/h 91% 0.25 mm 149 W/m2
11:34 7.8 °C 6.4 °C 1018.5 hPa SSW 2.1 km/h 8 km/h 91% 0.51 mm 148 W/m2
11:39 7.8 °C 6.4 °C 1018.5 hPa SSE 4.7 km/h 9.7 km/h 91% 0.51 mm 121 W/m2
11:44 7.8 °C 6.4 °C 1018.5 hPa SSW 3.2 km/h 11.3 km/h 91% 0.51 mm 123 W/m2
11:49 7.8 °C 6.4 °C 1018.2 hPa SSW 4.8 km/h 11.3 km/h 91% 0.51 mm 137 W/m2
11:54 7.8 °C 6.4 °C 1018.2 hPa SSW 5.1 km/h 14.5 km/h 91% 0.51 mm 137 W/m2
11:59 7.8 °C 6.3 °C 1018.2 hPa SSW 3.4 km/h 11.3 km/h 90.2% 0.51 mm 121 W/m2
12:04 7.9 °C 6.4 °C 1018.2 hPa SSW 0.3 km/h 1.6 km/h 90% 0.51 mm 98 W/m2
12:09 8 °C 6.6 °C 1017.8 hPa SSW 1 km/h 6.4 km/h 90.8% 0.51 mm 98 W/m2
12:14 8.1 °C 6.7 °C 1017.8 hPa North 3.1 km/h 8 km/h 91% 0.25 mm 84 W/m2
12:19 8.2 °C 6.8 °C 1017.8 hPa ESE 2.4 km/h 8 km/h 91% 0.25 mm 86 W/m2
12:24 8.2 °C 6.8 °C 1017.8 hPa SSE 2.6 km/h 8 km/h 91% 0.25 mm 76 W/m2
12:29 8.3 °C 6.9 °C 1017.8 hPa South 2.9 km/h 8 km/h 91% 0.25 mm 58 W/m2
12:34 8.3 °C 6.9 °C 1017.8 hPa SSW 4.5 km/h 14.5 km/h 91% 0.25 mm 60 W/m2
12:38 8.4 °C 7 °C 1017.8 hPa South 3.9 km/h 9.7 km/h 91% 0 mm 69 W/m2
12:44 8.4 °C 7 °C 1017.5 hPa SSW 7.2 km/h 11.3 km/h 91% 0 mm 76 W/m2
12:49 8.4 °C 7.1 °C 1017.5 hPa SW 3.9 km/h 9.7 km/h 91% 0 mm 93 W/m2
12:54 8.6 °C 7.2 °C 1017.5 hPa SW 1.6 km/h 9.7 km/h 91% 0 mm 90 W/m2
12:59 8.7 °C 7.3 °C 1017.2 hPa SSW 3.9 km/h 9.7 km/h 91% 0 mm 74 W/m2
13:04 8.8 °C 7.3 °C 1017.2 hPa SSW 2.7 km/h 11.3 km/h 91% 0 mm 56 W/m2
13:09 8.8 °C 7.4 °C 1017.2 hPa SSW 5.1 km/h 14.5 km/h 91% 0 mm 51 W/m2
13:14 8.9 °C 7.5 °C 1017.2 hPa SW 4.2 km/h 8 km/h 91% 0 mm 47 W/m2
13:19 8.9 °C 7.5 °C 1017.2 hPa WSW 1.3 km/h 6.4 km/h 91% 0.25 mm 49 W/m2
13:24 9 °C 7.6 °C 1016.8 hPa SW 5.5 km/h 12.9 km/h 91% 0.25 mm 60 W/m2
13:29 9.1 °C 7.8 °C 1016.8 hPa SW 1 km/h 8 km/h 91.6% 0.25 mm 63 W/m2
13:34 9.2 °C 7.9 °C 1016.8 hPa SW 0.8 km/h 8 km/h 92% 0.25 mm 74 W/m2
13:39 9.2 °C 8 °C 1016.8 hPa SSW 6.4 km/h 14.5 km/h 91.8% 0.25 mm 77 W/m2
13:44 9.3 °C 8.2 °C 1016.8 hPa SSW 5.8 km/h 14.5 km/h 92% 0.25 mm 49 W/m2
13:49 9.4 °C 8.2 °C 1016.5 hPa SW 5.5 km/h 11.3 km/h 92% 0.25 mm 47 W/m2
13:54 9.5 °C 8.3 °C 1016.5 hPa SW 3.5 km/h 17.7 km/h 92% 0.25 mm 46 W/m2
13:59 9.6 °C 8.4 °C 1016.5 hPa SW 8 km/h 20.9 km/h 92% 0.25 mm 33 W/m2
14:04 9.6 °C 8.4 °C 1016.5 hPa SSW 7.9 km/h 20.9 km/h 92% 0.25 mm 40 W/m2
14:09 9.6 °C 8.4 °C 1016.5 hPa SSW 7.7 km/h 19.3 km/h 92% 0.25 mm 39 W/m2
14:14 9.7 °C 8.5 °C 1016.1 hPa SSW 5.8 km/h 14.5 km/h 92% 0.25 mm 35 W/m2
14:19 9.7 °C 8.5 °C 1016.1 hPa SW 5.8 km/h 11.3 km/h 92% 0.25 mm 39 W/m2
14:24 9.7 °C 8.5 °C 1016.1 hPa SW 4 km/h 9.7 km/h 92% 0 mm 33 W/m2
14:29 9.8 °C 8.6 °C 1016.1 hPa SW 7.4 km/h 12.9 km/h 92% 0 mm 35 W/m2
14:34 9.8 °C 8.6 °C 1016.1 hPa South 6.1 km/h 12.9 km/h 92% 0 mm 32 W/m2
14:39 9.8 °C 8.7 °C 1016.1 hPa West 2.9 km/h 11.3 km/h 92.4% 0 mm 42 W/m2
14:44 9.8 °C 8.7 °C 1015.8 hPa WSW 2.7 km/h 6.4 km/h 92.8% 0 mm 42 W/m2
14:49 9.8 °C 8.8 °C 1015.8 hPa SW 2.9 km/h 9.7 km/h 93% 0 mm 39 W/m2
14:54 9.9 °C 8.8 °C 1015.5 hPa SSW 3.9 km/h 9.7 km/h 93% 0 mm 44 W/m2
14:59 10.1 °C 8.9 °C 1015.5 hPa SW 3.1 km/h 9.7 km/h 93% 0 mm 35 W/m2
15:04 10.1 °C 9 °C 1015.5 hPa SSW 4.7 km/h 11.3 km/h 93% 0 mm 35 W/m2
15:09 10.2 °C 9.1 °C 1015.5 hPa SW 6.9 km/h 14.5 km/h 93% 0 mm 37 W/m2
15:14 10.3 °C 9.2 °C 1015.1 hPa SW 6 km/h 11.3 km/h 93% 0 mm 40 W/m2
15:19 10.3 °C 9.2 °C 1015.1 hPa SW 7.1 km/h 11.3 km/h 93% 0 mm 37 W/m2
15:24 10.4 °C 9.3 °C 1015.1 hPa SW 5 km/h 11.3 km/h 93% 0 mm 32 W/m2
15:29 10.4 °C 9.3 °C 1015.1 hPa SW 6.1 km/h 11.3 km/h 93% 0 mm 35 W/m2
15:34 10.5 °C 9.4 °C 1015.1 hPa SSW 8.9 km/h 11.3 km/h 93% 0 mm 33 W/m2
15:39 10.6 °C 9.5 °C 1015.1 hPa SW 9 km/h 12.9 km/h 93% 0 mm 32 W/m2
15:44 10.6 °C 9.5 °C 1014.8 hPa SW 5.8 km/h 9.7 km/h 93% 0 mm 26 W/m2
15:49 10.6 °C 9.5 °C 1014.8 hPa SSW 5.1 km/h 12.9 km/h 93% 0 mm 30 W/m2
15:54 10.7 °C 9.6 °C 1014.8 hPa SSW 4 km/h 8 km/h 93% 0 mm 28 W/m2
15:59 10.7 °C 9.6 °C 1014.8 hPa SSW 6 km/h 12.9 km/h 93% 0 mm 28 W/m2
16:04 10.7 °C 9.6 °C 1014.4 hPa SSW 7.4 km/h 12.9 km/h 93% 0 mm 26 W/m2
16:08 10.7 °C 9.6 °C 1014.4 hPa SW 5.1 km/h 11.3 km/h 93% 0 mm 25 W/m2
16:14 10.7 °C 9.6 °C 1014.4 hPa SW 4.8 km/h 12.9 km/h 93% 0 mm 23 W/m2
16:19 10.8 °C 9.7 °C 1014.4 hPa SW 7.6 km/h 12.9 km/h 93% 0 mm 26 W/m2
16:24 10.8 °C 9.7 °C 1014.4 hPa SW 5.8 km/h 11.3 km/h 93% 0 mm 26 W/m2
16:29 10.8 °C 9.7 °C 1014.4 hPa SSW 6 km/h 16.1 km/h 93% 0 mm 23 W/m2
16:34 10.8 °C 9.7 °C 1014.4 hPa SSW 8.2 km/h 16.1 km/h 93% 0 mm 14 W/m2
16:39 10.8 °C 9.7 °C 1014.4 hPa SW 5.8 km/h 11.3 km/h 93% 0 mm 12 W/m2
16:44 10.8 °C 9.7 °C 1014.1 hPa SSW 6 km/h 11.3 km/h 93% 0 mm 11 W/m2
16:49 10.8 °C 9.7 °C 1014.1 hPa SSW 7.7 km/h 14.5 km/h 93% 0 mm 11 W/m2
16:54 10.8 °C 9.7 °C 1014.1 hPa South 4 km/h 11.3 km/h 93% 0 mm 9 W/m2
16:59 10.8 °C 9.7 °C 1014.1 hPa South 3.1 km/h 8 km/h 93% 0 mm 9 W/m2
17:04 10.8 °C 9.7 °C 1014.1 hPa South 2.7 km/h 8 km/h 93% 0 mm 5 W/m2
17:09 10.8 °C 9.7 °C 1014.1 hPa SW 6.1 km/h 14.5 km/h 93% 0 mm 5 W/m2
17:14 10.8 °C 9.7 °C 1014.1 hPa SSW 5.8 km/h 11.3 km/h 93% 0 mm 5 W/m2
17:19 10.8 °C 9.7 °C 1014.1 hPa SSW 5.8 km/h 11.3 km/h 93% 0 mm 5 W/m2
17:24 10.8 °C 9.7 °C 1013.8 hPa SSW 4.5 km/h 11.3 km/h 93% 0 mm 0 W/m2
17:29 10.8 °C 9.7 °C 1014.1 hPa SW 6.1 km/h 12.9 km/h 93% 0 mm 0 W/m2
17:34 10.8 °C 9.7 °C 1013.8 hPa SW 5.3 km/h 12.9 km/h 93% 0 mm 0 W/m2
17:39 10.8 °C 9.7 °C 1013.8 hPa SSW 2.7 km/h 9.7 km/h 93% 0 mm 0 W/m2
17:44 10.8 °C 9.7 °C 1013.8 hPa SSW 7.1 km/h 11.3 km/h 93% 0 mm 0 W/m2
17:49 10.8 °C 9.7 °C 1013.4 hPa SSW 4 km/h 11.3 km/h 93% 0 mm 0 W/m2
17:54 10.8 °C 9.7 °C 1013.4 hPa SSW 6 km/h 11.3 km/h 93% 0 mm 0 W/m2
17:59 10.8 °C 9.7 °C 1013.4 hPa SSW 5.5 km/h 11.3 km/h 93% 0 mm 0 W/m2
18:04 10.8 °C 9.7 °C 1013.4 hPa SW 5.5 km/h 9.7 km/h 93% 0 mm 0 W/m2
18:09 10.8 °C 9.7 °C 1013.4 hPa SW 7.1 km/h 11.3 km/h 93% 0 mm 0 W/m2
18:14 10.8 °C 9.7 °C 1013.4 hPa SW 4 km/h 12.9 km/h 93% 0 mm 0 W/m2
18:19 10.8 °C 9.7 °C 1013.4 hPa SW 5.8 km/h 12.9 km/h 93% 0 mm 0 W/m2
18:24 10.8 °C 9.7 °C 1013.4 hPa SSW 7.2 km/h 12.9 km/h 93% 0 mm 0 W/m2
18:29 10.8 °C 9.7 °C 1013.4 hPa SW 5.5 km/h 12.9 km/h 93% 0 mm 0 W/m2
18:34 10.8 °C 9.7 °C 1013.1 hPa SSW 3.4 km/h 9.7 km/h 93% 0 mm 0 W/m2
18:39 10.8 °C 9.7 °C 1013.1 hPa SW 3.2 km/h 6.4 km/h 93% 0 mm 0 W/m2
18:44 10.8 °C 9.7 °C 1013.1 hPa SW 5.3 km/h 12.9 km/h 93% 0 mm 0 W/m2
18:49 10.8 °C 9.7 °C 1013.1 hPa SW 7.2 km/h 16.1 km/h 93% 0 mm 0 W/m2
18:54 10.8 °C 9.7 °C 1013.1 hPa SSW 5.1 km/h 16.1 km/h 93% 0 mm 0 W/m2
18:59 10.8 °C 9.7 °C 1013.1 hPa SW 6.9 km/h 12.9 km/h 93% 0 mm 0 W/m2
19:04 10.8 °C 9.7 °C 1013.1 hPa SW 4.7 km/h 9.7 km/h 93% 0 mm 0 W/m2
19:09 10.8 °C 9.7 °C 1012.8 hPa SW 9 km/h 16.1 km/h 93% 0 mm 0 W/m2
19:14 10.8 °C 9.7 °C 1012.8 hPa SW 10 km/h 20.9 km/h 93% 0 mm 0 W/m2
19:19 10.8 °C 9.7 °C 1012.8 hPa SW 10.3 km/h 14.5 km/h 93% 0 mm 0 W/m2
19:24 10.8 °C 9.7 °C 1012.8 hPa SSW 7.9 km/h 17.7 km/h 93% 0 mm 0 W/m2
19:29 10.8 °C 9.7 °C 1012.8 hPa SW 7.1 km/h 19.3 km/h 93% 0 mm 0 W/m2
19:34 10.8 °C 9.7 °C 1012.8 hPa SSW 9.5 km/h 17.7 km/h 93% 0 mm 0 W/m2
19:39 10.8 °C 9.7 °C 1012.8 hPa SW 8.4 km/h 16.1 km/h 93% 0 mm 0 W/m2
19:44 10.8 °C 9.7 °C 1012.8 hPa SSW 8.9 km/h 19.3 km/h 93% 0 mm 0 W/m2
19:49 10.8 °C 9.7 °C 1012.8 hPa SW 9 km/h 19.3 km/h 93% 0 mm 0 W/m2
19:54 10.8 °C 9.7 °C 1012.8 hPa SW 6.3 km/h 12.9 km/h 93% 0 mm 0 W/m2
19:59 10.8 °C 9.7 °C 1012.4 hPa SW 7.2 km/h 14.5 km/h 93% 0 mm 0 W/m2
20:04 10.8 °C 9.7 °C 1012.4 hPa SW 10 km/h 19.3 km/h 93% 0 mm 0 W/m2
20:09 10.8 °C 9.7 °C 1012.4 hPa SW 9.3 km/h 19.3 km/h 93% 0 mm 0 W/m2
20:14 10.8 °C 9.7 °C 1012.4 hPa WSW 6.4 km/h 12.9 km/h 93% 0 mm 0 W/m2
20:19 10.8 °C 9.7 °C 1012.1 hPa SW 8 km/h 14.5 km/h 93% 0 mm 0 W/m2
20:24 10.8 °C 9.7 °C 1012.1 hPa SSW 6 km/h 12.9 km/h 93% 0 mm 0 W/m2
20:29 10.8 °C 9.7 °C 1012.1 hPa SW 3.9 km/h 9.7 km/h 93% 0 mm 0 W/m2
20:34 10.8 °C 9.7 °C 1012.1 hPa SSW 7.2 km/h 16.1 km/h 93% 0 mm 0 W/m2
20:39 10.8 °C 9.7 °C 1012.1 hPa SSW 5 km/h 12.9 km/h 93% 0 mm 0 W/m2
20:44 10.7 °C 9.6 °C 1011.7 hPa SSW 3.4 km/h 11.3 km/h 93% 0 mm 0 W/m2
20:49 10.6 °C 9.5 °C 1011.7 hPa South 8 km/h 17.7 km/h 93% 0 mm 0 W/m2
20:54 10.6 °C 9.5 °C 1011.7 hPa SSW 4.3 km/h 11.3 km/h 93% 0 mm 0 W/m2
20:59 10.6 °C 9.5 °C 1011.7 hPa SW 7.9 km/h 16.1 km/h 93% 0 mm 0 W/m2
21:04 10.6 °C 9.5 °C 1011.7 hPa SSW 7.9 km/h 16.1 km/h 93% 0 mm 0 W/m2
21:09 10.6 °C 9.5 °C 1011.4 hPa SW 8.5 km/h 16.1 km/h 93% 0 mm 0 W/m2
21:14 10.6 °C 9.5 °C 1011.4 hPa SW 7.6 km/h 19.3 km/h 93% 0 mm 0 W/m2
21:19 10.7 °C 9.6 °C 1011.4 hPa SW 12.4 km/h 20.9 km/h 93% 0 mm 0 W/m2
21:24 10.7 °C 9.6 °C 1011.4 hPa SW 12.2 km/h 20.9 km/h 93% 0 mm 0 W/m2
21:29 10.7 °C 9.6 °C 1011.4 hPa SW 11.9 km/h 22.5 km/h 93% 0 mm 0 W/m2
21:34 10.6 °C 9.5 °C 1011.4 hPa SW 8.7 km/h 19.3 km/h 93% 0 mm 0 W/m2
21:39 10.6 °C 9.4 °C 1011.4 hPa WSW 9 km/h 20.9 km/h 93% 0 mm 0 W/m2
21:44 10.4 °C 9.3 °C 1011.4 hPa WSW 13.8 km/h 25.7 km/h 93% 0 mm 0 W/m2
21:49 10.4 °C 9.3 °C 1011.4 hPa WSW 10.6 km/h 20.9 km/h 93% 0 mm 0 W/m2
21:54 10.3 °C 9.2 °C 1011.4 hPa SW 10.9 km/h 20.9 km/h 93% 0 mm 0 W/m2
21:59 10.2 °C 9.1 °C 1011.4 hPa WSW 9 km/h 19.3 km/h 93% 0 mm 0 W/m2
22:04 10.1 °C 8.9 °C 1011.1 hPa WSW 14.5 km/h 22.5 km/h 93% 0 mm 0 W/m2
22:09 10 °C 8.9 °C 1011.1 hPa SW 13.4 km/h 27.4 km/h 93% 0 mm 0 W/m2
22:14 10 °C 8.9 °C 1010.7 hPa SSW 10 km/h 20.9 km/h 93% 0 mm 0 W/m2
22:18 10.1 °C 8.9 °C 1010.7 hPa SW 14.2 km/h 20.9 km/h 92.8% 0 mm 0 W/m2
22:24 10.1 °C 8.9 °C 1010.7 hPa SSW 6.9 km/h 17.7 km/h 92% 0 mm 0 W/m2
22:29 10.2 °C 8.9 °C 1010.7 hPa South 8.5 km/h 19.3 km/h 92% 0 mm 0 W/m2
22:34 10.2 °C 8.9 °C 1010.4 hPa South 9.3 km/h 20.9 km/h 92% 0 mm 0 W/m2
22:39 10.2 °C 8.8 °C 1010.4 hPa SSW 9.2 km/h 22.5 km/h 91.2% 0 mm 0 W/m2
22:44 10.2 °C 8.8 °C 1010.4 hPa SW 8.5 km/h 19.3 km/h 91% 0 mm 0 W/m2
22:49 10.3 °C 8.8 °C 1010.4 hPa SW 10.6 km/h 20.9 km/h 91% 0 mm 0 W/m2
22:54 10.3 °C 8.9 °C 1010.4 hPa SSW 8.2 km/h 25.7 km/h 91% 0 mm 0 W/m2
22:59 10.3 °C 8.9 °C 1010.4 hPa SSW 10.3 km/h 22.5 km/h 91% 0 mm 0 W/m2
23:04 10.2 °C 8.7 °C 1010.4 hPa SW 10.1 km/h 19.3 km/h 90.2% 0 mm 0 W/m2
23:09 10.2 °C 8.7 °C 1010.4 hPa SSW 7.7 km/h 20.9 km/h 90.2% 0 mm 0 W/m2
23:14 10.2 °C 8.6 °C 1010 hPa SSW 7.7 km/h 14.5 km/h 90% 0 mm 0 W/m2
23:19 10.2 °C 8.7 °C 1010 hPa SSW 8.5 km/h 16.1 km/h 90.4% 0 mm 0 W/m2
23:24 10.1 °C 8.6 °C 1010 hPa SSW 11.6 km/h 25.7 km/h 90.4% 0 mm 0 W/m2
23:29 10.1 °C 8.5 °C 1010 hPa SSW 12.2 km/h 25.7 km/h 90% 0 mm 0 W/m2
23:34 10.1 °C 8.5 °C 1010 hPa SSW 12.9 km/h 25.7 km/h 90% 0 mm 0 W/m2
23:39 10.1 °C 8.5 °C 1010 hPa SSW 14.5 km/h 22.5 km/h 90% 0 mm 0 W/m2
23:44 10.1 °C 8.4 °C 1009.7 hPa SSW 11.9 km/h 25.7 km/h 90% 0 mm 0 W/m2
23:49 10 °C 8.4 °C 1009.7 hPa SSW 10.9 km/h 24.1 km/h 90% 0 mm 0 W/m2
23:54 9.9 °C 8.3 °C 1009.7 hPa SW 11.3 km/h 22.5 km/h 90% 0 mm 0 W/m2
23:59 9.9 °C 8.3 °C 1009.7 hPa SW 19.6 km/h 30.6 km/h 90% 0 mm 0 W/m2
Bath Spa Weather
Compliments of Weather Underground - 2 mb